createdAt,value
2022-12-05T00:00:22.235Z,99764.81
2022-12-05T00:03:11.961Z,99773.31
2022-12-05T00:06:00.385Z,99779.25
2022-12-05T00:08:48.999Z,99783.53
2022-12-05T00:11:39.366Z,99787.81
2022-12-05T00:14:27.761Z,99792.84
2022-12-05T00:17:16.189Z,99782.50
2022-12-05T00:20:07.870Z,99790.09
2022-12-05T00:22:56.277Z,99797.69
2022-12-05T00:25:44.774Z,99795.91
2022-12-05T00:28:33.294Z,99800.16
2022-12-05T00:31:23.333Z,99801.84
2022-12-05T00:34:12.021Z,99800.09
2022-12-05T00:37:01.825Z,99809.47
2022-12-05T00:39:50.204Z,99807.84
2022-12-05T00:42:38.650Z,99805.41
2022-12-05T00:45:27.061Z,99810.56
2022-12-05T00:48:15.462Z,99816.56
2022-12-05T00:51:03.919Z,99808.09
2022-12-05T00:53:53.686Z,99803.19
2022-12-05T00:56:42.294Z,99812.63
2022-12-05T00:59:30.847Z,99810.94
2022-12-05T01:02:19.245Z,99825.41
2022-12-05T01:05:08.883Z,99825.47
2022-12-05T01:07:57.293Z,99832.31
2022-12-05T01:10:55.153Z,99829.81
2022-12-05T01:13:43.673Z,99832.41
2022-12-05T01:16:34.605Z,99843.50
2022-12-05T01:19:24.667Z,99840.13
2022-12-05T01:22:13.110Z,99839.31
2022-12-05T01:25:01.522Z,99842.84
2022-12-05T01:27:51.287Z,99848.00
2022-12-05T01:30:40.091Z,99844.59
2022-12-05T01:33:28.508Z,99854.78
2022-12-05T01:36:17.037Z,99853.84
2022-12-05T01:39:06.350Z,99846.97
2022-12-05T01:41:54.809Z,99847.88
2022-12-05T01:45:16.393Z,99843.66
2022-12-05T01:48:08.736Z,99849.69
2022-12-05T01:50:57.101Z,99852.97
2022-12-05T01:53:45.464Z,99846.88
2022-12-05T01:56:34.083Z,99847.66
2022-12-05T01:59:23.417Z,99843.28
2022-12-05T02:02:13.304Z,99843.25
2022-12-05T02:05:05.092Z,99845.72
2022-12-05T02:07:53.505Z,99844.81
2022-12-05T02:10:44.226Z,99839.69
2022-12-05T02:13:53.879Z,99845.63
2022-12-05T02:16:52.007Z,99853.31
2022-12-05T02:20:05.015Z,99860.94
2022-12-05T02:23:34.564Z,99862.69
2022-12-05T02:26:52.550Z,99867.88
2022-12-05T02:30:03.377Z,99874.00
2022-12-05T02:33:06.892Z,99861.28
2022-12-05T02:36:00.452Z,99874.91
2022-12-05T02:38:52.590Z,99873.16
2022-12-05T02:41:44.660Z,99880.81
2022-12-05T02:44:34.672Z,99880.03
2022-12-05T02:47:27.347Z,99884.34
2022-12-05T02:50:19.854Z,99880.06
2022-12-05T02:53:10.652Z,99885.16
2022-12-05T02:55:59.215Z,99884.22
2022-12-05T02:58:51.904Z,99891.84
2022-12-05T03:01:40.669Z,99884.25
2022-12-05T03:04:30.527Z,99891.81
2022-12-05T03:07:19.077Z,99896.00
2022-12-05T03:10:09.257Z,99905.44
2022-12-05T03:12:59.114Z,99910.53
2022-12-05T03:15:49.913Z,99910.50
2022-12-05T03:18:40.251Z,99918.09
2022-12-05T03:21:35.629Z,99907.88
2022-12-05T03:24:24.025Z,99909.53
2022-12-05T03:27:17.150Z,99905.31
2022-12-05T03:30:07.771Z,99915.47
2022-12-05T03:32:59.452Z,99908.75
2022-12-05T03:35:52.396Z,99918.19
2022-12-05T03:38:46.814Z,99923.22
2022-12-05T03:41:39.711Z,99927.44
2022-12-05T03:44:32.309Z,99928.25
2022-12-05T03:47:23.444Z,99932.41
2022-12-05T03:50:14.714Z,99939.16
2022-12-05T03:53:21.575Z,99943.41
2022-12-05T03:56:14.391Z,99939.16
2022-12-05T03:59:06.374Z,99944.97
2022-12-05T04:01:55.671Z,99946.59
2022-12-05T04:04:48.387Z,99946.59
2022-12-05T04:07:39.304Z,99942.31
2022-12-05T04:10:29.752Z,99944.91
2022-12-05T04:13:22.453Z,99955.13
2022-12-05T04:16:33.243Z,99950.81
2022-12-05T04:19:24.870Z,99956.03
2022-12-05T04:22:12.288Z,99953.56
2022-12-05T04:25:19.571Z,99954.38
2022-12-05T04:28:21.922Z,99947.56
2022-12-05T04:31:13.051Z,99958.59
2022-12-05T04:34:05.176Z,99962.91
2022-12-05T04:36:56.411Z,99965.44
2022-12-05T04:39:48.463Z,99966.31
2022-12-05T04:42:37.204Z,99956.94
2022-12-05T04:45:26.987Z,99960.31
2022-12-05T04:48:16.471Z,99955.94
2022-12-05T04:51:05.168Z,99938.00
2022-12-05T04:53:55.638Z,99943.94
2022-12-05T04:56:44.537Z,99944.88
2022-12-05T04:59:32.937Z,99948.25
2022-12-05T05:02:25.864Z,99952.47
2022-12-05T05:05:14.958Z,99949.06
2022-12-05T05:08:03.421Z,99943.88
2022-12-05T05:10:59.492Z,99942.22
2022-12-05T05:13:48.048Z,99940.50
2022-12-05T05:16:38.374Z,99941.41
2022-12-05T05:19:28.190Z,99945.63
2022-12-05T05:22:16.601Z,99940.50
2022-12-05T05:25:05.518Z,99949.78
2022-12-05T05:27:55.594Z,99948.06
2022-12-05T05:30:44.019Z,99947.22
2022-12-05T05:33:32.525Z,99954.88
2022-12-05T05:36:23.576Z,99958.97
2022-12-05T05:39:14.858Z,99959.78
2022-12-05T05:42:03.265Z,99958.88
2022-12-05T05:44:51.661Z,99958.88
2022-12-05T05:47:40.161Z,99961.41
2022-12-05T05:50:28.647Z,99958.88
2022-12-05T05:53:18.413Z,99956.22
2022-12-05T05:56:09.006Z,99966.44
2022-12-05T05:58:58.811Z,99969.78
2022-12-05T06:01:47.275Z,99968.91
2022-12-05T06:04:36.282Z,99980.84
2022-12-05T06:07:25.066Z,99986.78
2022-12-05T06:10:15.014Z,99980.75
2022-12-05T06:13:03.423Z,99984.97
2022-12-05T06:15:52.314Z,99990.88
2022-12-05T06:18:40.849Z,99993.31
2022-12-05T06:21:29.337Z,100001.84
2022-12-05T06:24:17.820Z,100001.81
2022-12-05T06:27:07.590Z,100007.75
2022-12-05T06:29:56.187Z,100008.59
2022-12-05T06:32:44.824Z,100003.47
2022-12-05T06:35:33.288Z,99998.44
2022-12-05T06:38:21.759Z,100008.59
2022-12-05T06:41:11.303Z,100011.13
2022-12-05T06:44:02.421Z,100005.94
2022-12-05T06:46:51.208Z,100006.03
2022-12-05T06:49:39.615Z,100006.03
2022-12-05T06:52:28.031Z,100018.84
2022-12-05T06:55:16.540Z,100012.97
2022-12-05T06:58:04.942Z,100006.94
2022-12-05T07:01:12.633Z,100018.84
2022-12-05T07:03:45.029Z,100028.31
2022-12-05T07:06:13.985Z,100027.41
2022-12-05T07:08:42.434Z,100036.72
2022-12-05T07:11:11.150Z,100042.72
2022-12-05T07:13:39.399Z,100045.31
2022-12-05T07:16:09.345Z,100052.19
2022-12-05T07:18:37.682Z,100055.66
2022-12-05T07:21:12.255Z,100053.09
2022-12-05T07:23:41.106Z,100054.81
2022-12-05T07:26:10.454Z,100051.38
2022-12-05T07:28:38.614Z,100058.22
2022-12-05T07:31:09.385Z,100060.75
2022-12-05T07:33:37.938Z,100061.63
2022-12-05T07:36:08.154Z,100060.81
2022-12-05T07:38:36.297Z,100072.75
2022-12-05T07:41:11.637Z,100072.78
2022-12-05T07:43:41.405Z,100062.50
2022-12-05T07:46:12.227Z,100064.19
2022-12-05T07:48:40.676Z,100060.75
2022-12-05T07:51:09.465Z,100070.91
2022-12-05T07:53:37.880Z,100072.53
2022-12-05T07:56:07.774Z,100075.22
2022-12-05T07:58:36.081Z,100076.94
2022-12-05T08:01:08.168Z,100084.59
2022-12-05T08:03:38.381Z,100081.16
2022-12-05T08:06:07.735Z,100092.19
2022-12-05T08:08:35.899Z,100097.31
2022-12-05T08:11:05.071Z,100100.72
2022-12-05T08:13:33.306Z,100100.63
2022-12-05T08:16:04.662Z,100095.47
2022-12-05T08:18:32.897Z,100094.56
2022-12-05T08:21:06.517Z,100101.38
2022-12-05T08:23:34.966Z,100103.06
2022-12-05T08:26:04.003Z,100103.00
2022-12-05T08:28:32.316Z,100095.28
2022-12-05T08:31:05.913Z,100107.97
2022-12-05T08:33:34.147Z,100107.94
2022-12-05T08:36:03.396Z,100107.84
2022-12-05T08:38:33.025Z,100113.75
2022-12-05T08:41:02.276Z,100113.72
2022-12-05T08:43:30.673Z,100118.72
2022-12-05T08:45:58.838Z,100120.41
2022-12-05T08:48:29.505Z,100117.84
2022-12-05T08:50:58.027Z,100126.34
2022-12-05T08:53:26.578Z,100130.66
2022-12-05T08:55:56.033Z,100134.09
2022-12-05T08:58:24.157Z,100131.59
2022-12-05T09:00:52.332Z,100136.75
2022-12-05T09:03:20.455Z,100135.91
2022-12-05T09:05:54.549Z,100133.34
2022-12-05T09:08:23.166Z,100135.00
2022-12-05T09:10:51.355Z,100143.56
2022-12-05T09:13:22.651Z,100142.59
2022-12-05T09:15:50.909Z,100145.13
2022-12-05T09:18:19.148Z,100147.66
2022-12-05T09:20:47.341Z,100150.16
2022-12-05T09:23:16.276Z,100156.91
2022-12-05T09:25:44.558Z,100161.13
2022-12-05T09:28:12.662Z,100160.25
2022-12-05T09:30:43.841Z,100165.28
2022-12-05T09:33:12.024Z,100162.72
2022-12-05T09:35:40.972Z,100159.25
2022-12-05T09:38:09.101Z,100156.66
2022-12-05T09:40:40.497Z,100162.53
2022-12-05T09:43:08.628Z,100161.59
2022-12-05T09:45:38.070Z,100176.88
2022-12-05T09:48:11.360Z,100149.50
2022-12-05T09:50:44.576Z,100149.44
2022-12-05T09:53:16.702Z,100157.88
2022-12-05T09:55:50.040Z,100154.41
2022-12-05T09:58:29.412Z,100151.84
2022-12-05T10:01:03.576Z,100162.91
2022-12-05T10:03:40.087Z,100160.41
2022-12-05T10:06:16.198Z,100166.47
2022-12-05T10:09:06.328Z,100158.00
2022-12-05T10:11:38.294Z,100155.31
2022-12-05T10:14:10.600Z,100152.75
2022-12-05T10:16:41.232Z,100160.44
2022-12-05T10:19:14.046Z,100165.50
2022-12-05T10:21:48.841Z,100156.13
2022-12-05T10:24:18.590Z,100162.97
2022-12-05T10:26:49.634Z,100158.72
2022-12-05T10:29:24.885Z,100159.53
2022-12-05T10:31:53.937Z,100161.22
2022-12-05T10:34:29.456Z,100151.00
2022-12-05T10:37:01.596Z,100158.69
2022-12-05T10:39:29.736Z,100150.13
2022-12-05T10:41:57.841Z,100161.28
2022-12-05T10:44:27.023Z,100166.47
2022-12-05T10:46:55.172Z,100158.78
2022-12-05T10:49:24.670Z,100164.72
2022-12-05T10:51:52.838Z,100162.97
2022-12-05T10:54:23.490Z,100159.47
2022-12-05T10:56:52.573Z,100160.22
2022-12-05T10:59:23.387Z,100152.50
2022-12-05T11:01:53.626Z,100154.13
2022-12-05T11:04:30.159Z,100151.53
2022-12-05T11:07:00.424Z,100152.28
2022-12-05T11:09:29.742Z,100148.88
2022-12-05T11:12:18.236Z,100151.47
2022-12-05T11:15:03.223Z,100152.28
2022-12-05T11:17:34.440Z,100145.50
2022-12-05T11:20:05.387Z,100144.69
2022-12-05T11:22:35.229Z,100150.69
2022-12-05T11:25:03.417Z,100157.50
2022-12-05T11:27:32.940Z,100153.19
2022-12-05T11:30:03.376Z,100149.72
2022-12-05T11:32:33.385Z,100147.13
2022-12-05T11:35:10.034Z,100153.06
2022-12-05T11:37:41.668Z,100145.31
2022-12-05T11:40:18.223Z,100138.53
2022-12-05T11:43:12.301Z,100147.13
2022-12-05T11:45:52.440Z,100147.03
2022-12-05T11:48:41.754Z,100145.28
2022-12-05T11:51:30.983Z,100145.16
2022-12-05T11:54:35.642Z,100147.69
2022-12-05T11:57:11.438Z,100135.72
2022-12-05T12:00:04.892Z,100143.63
2022-12-05T12:03:05.053Z,100151.34
2022-12-05T12:05:36.297Z,100143.69
2022-12-05T12:08:13.118Z,100145.41
2022-12-05T12:10:48.475Z,100143.78
2022-12-05T12:13:28.885Z,100143.88
2022-12-05T12:16:08.802Z,100145.50
2022-12-05T12:19:08.982Z,100146.31
2022-12-05T12:21:51.297Z,100138.63
2022-12-05T12:24:28.087Z,100142.84
2022-12-05T12:27:04.034Z,100139.41
2022-12-05T12:29:46.550Z,100137.69
2022-12-05T12:32:25.181Z,100141.06
2022-12-05T12:35:28.903Z,100137.59
2022-12-05T12:38:17.161Z,100134.97
2022-12-05T12:40:49.922Z,100142.63
2022-12-05T12:43:52.594Z,100138.38
2022-12-05T12:46:25.276Z,100140.88
2022-12-05T12:49:09.142Z,100146.94
2022-12-05T12:51:51.575Z,100135.84
2022-12-05T12:55:04.683Z,100133.19
2022-12-05T12:57:46.646Z,100136.53
2022-12-05T13:00:23.705Z,100136.53
2022-12-05T13:02:53.407Z,100133.06
2022-12-05T13:05:29.225Z,100121.03
2022-12-05T13:08:00.111Z,100119.25
2022-12-05T13:10:33.073Z,100114.00
2022-12-05T13:13:03.332Z,100124.13
2022-12-05T13:15:35.884Z,100110.38
2022-12-05T13:18:04.642Z,100112.72
2022-12-05T13:20:35.743Z,100116.72
2022-12-05T13:23:07.924Z,100119.00
2022-12-05T13:25:38.881Z,100125.66
2022-12-05T13:28:25.535Z,100130.75
2022-12-05T13:31:01.716Z,100128.28
2022-12-05T13:33:34.324Z,100128.44
2022-12-05T13:36:28.423Z,100138.66
2022-12-05T13:39:18.379Z,100137.03
2022-12-05T13:42:04.960Z,100129.38
2022-12-05T13:44:40.872Z,100143.06
2022-12-05T13:47:21.902Z,100141.38
2022-12-05T13:49:52.814Z,100137.97
2022-12-05T13:52:24.066Z,100140.47
2022-12-05T13:54:57.872Z,100133.56
2022-12-05T13:57:54.804Z,100140.31
2022-12-05T14:00:34.027Z,100145.44
2022-12-05T14:03:05.381Z,100141.94
2022-12-05T14:05:41.475Z,100146.94
2022-12-05T14:08:53.052Z,100150.31
2022-12-05T14:11:21.898Z,100141.72
2022-12-05T14:13:50.333Z,100146.81
2022-12-05T14:16:53.309Z,100145.91
2022-12-05T14:19:53.198Z,100137.59
2022-12-05T14:22:53.187Z,100140.06
2022-12-05T14:25:31.332Z,100140.06
2022-12-05T14:28:04.080Z,100138.34
2022-12-05T14:30:36.172Z,100142.59
2022-12-05T14:33:05.995Z,100150.22
2022-12-05T14:35:43.204Z,100151.81
2022-12-05T14:38:23.160Z,100155.19
2022-12-05T14:40:51.667Z,100151.78
2022-12-05T14:43:22.176Z,100153.59
2022-12-05T14:45:59.820Z,100166.56
2022-12-05T14:48:32.457Z,100169.13
2022-12-05T14:51:01.254Z,100159.81
2022-12-05T14:53:36.770Z,100162.44
2022-12-05T14:56:26.940Z,100153.88
2022-12-05T14:58:57.855Z,100162.44
2022-12-05T15:01:28.555Z,100170.13
2022-12-05T15:04:09.272Z,100163.31
2022-12-05T15:06:46.091Z,100168.13
2022-12-05T15:09:42.614Z,100163.78
2022-12-05T15:12:16.248Z,100163.78
2022-12-05T15:14:49.202Z,100166.44
2022-12-05T15:17:19.545Z,100174.13
2022-12-05T15:19:53.364Z,100179.25
2022-12-05T15:22:22.596Z,100177.59
2022-12-05T15:24:50.773Z,100173.38
2022-12-05T15:27:19.091Z,100172.50
2022-12-05T15:29:47.306Z,100170.94
2022-12-05T15:32:18.522Z,100173.56
2022-12-05T15:34:50.360Z,100181.34
2022-12-05T15:37:20.193Z,100185.69
2022-12-05T15:39:53.976Z,100170.47
2022-12-05T15:42:29.020Z,100178.84
2022-12-05T15:45:16.775Z,100173.00
2022-12-05T15:47:46.063Z,100187.53
2022-12-05T15:50:16.063Z,100188.50
2022-12-05T15:52:47.143Z,100193.75
2022-12-05T15:55:17.246Z,100198.97
2022-12-05T15:57:47.439Z,100198.97
2022-12-05T16:00:17.848Z,100200.75
2022-12-05T16:02:47.699Z,100195.63
2022-12-05T16:05:22.433Z,100193.91
2022-12-05T16:07:51.088Z,100195.53
2022-12-05T16:10:23.413Z,100196.34
2022-12-05T16:12:54.362Z,100192.88
2022-12-05T16:15:25.111Z,100183.41
2022-12-05T16:17:55.602Z,100191.16
2022-12-05T16:20:30.858Z,100189.47
2022-12-05T16:23:02.403Z,100190.31
2022-12-05T16:25:32.554Z,100196.31
2022-12-05T16:28:16.271Z,100196.34
2022-12-05T16:30:57.887Z,100198.13
2022-12-05T16:33:26.739Z,100201.59
2022-12-05T16:35:56.251Z,100196.59
2022-12-05T16:38:25.687Z,100205.31
2022-12-05T16:40:59.035Z,100201.22
2022-12-05T16:43:41.120Z,100193.72
2022-12-05T16:46:45.577Z,100198.06
2022-12-05T16:49:20.283Z,100196.31
2022-12-05T16:51:59.431Z,100195.47
2022-12-05T16:54:27.552Z,100195.41
2022-12-05T16:56:56.817Z,100197.94
2022-12-05T16:59:27.901Z,100202.22
2022-12-05T17:01:56.039Z,100204.69
2022-12-05T17:04:24.347Z,100204.63
2022-12-05T17:06:52.627Z,100206.22
2022-12-05T17:09:22.238Z,100207.84
2022-12-05T17:11:52.198Z,100212.06
2022-12-05T17:14:20.410Z,100209.59
2022-12-05T17:16:48.622Z,100218.09
2022-12-05T17:19:16.809Z,100218.91
2022-12-05T17:21:45.682Z,100220.66
2022-12-05T17:24:18.239Z,100219.00
2022-12-05T17:26:47.727Z,100220.75
2022-12-05T17:29:15.848Z,100217.38
2022-12-05T17:31:44.068Z,100229.31
2022-12-05T17:34:16.732Z,100219.97
2022-12-05T17:36:45.036Z,100221.66
2022-12-05T17:39:13.291Z,100228.56
2022-12-05T17:41:41.395Z,100233.75
2022-12-05T17:44:13.596Z,100234.69
2022-12-05T17:46:42.633Z,100236.44
2022-12-05T17:49:13.553Z,100228.91
2022-12-05T17:52:05.431Z,100229.06
2022-12-05T17:54:30.769Z,100233.47
2022-12-05T17:56:58.963Z,100239.50
2022-12-05T17:59:28.384Z,100233.56
2022-12-05T18:01:56.542Z,100233.59
2022-12-05T18:04:24.686Z,100232.84
2022-12-05T18:06:52.891Z,100231.16
2022-12-05T18:09:21.424Z,100240.56
2022-12-05T18:11:49.546Z,100232.09
2022-12-05T18:14:17.715Z,100237.34
2022-12-05T18:16:47.280Z,100232.28
2022-12-05T18:19:15.890Z,100238.22
2022-12-05T18:24:12.116Z,100240.72
2022-12-05T18:26:40.250Z,100241.69
2022-12-05T18:29:08.347Z,100237.50
2022-12-05T18:31:38.299Z,100244.34
2022-12-05T18:34:07.892Z,100240.09
2022-12-05T18:36:36.062Z,100241.81
2022-12-05T18:39:04.394Z,100240.09
2022-12-05T18:41:32.636Z,100233.31
2022-12-05T18:44:00.787Z,100235.06
2022-12-05T18:46:29.251Z,100239.34
2022-12-05T18:49:01.773Z,100239.34
2022-12-05T18:51:32.953Z,100241.09
2022-12-05T18:54:01.053Z,100235.97
2022-12-05T18:56:31.272Z,100235.16
2022-12-05T18:59:01.839Z,100224.00
2022-12-05T19:01:31.758Z,100229.94
2022-12-05T19:04:00.895Z,100227.28
2022-12-05T19:06:30.442Z,100234.94
2022-12-05T19:09:01.692Z,100227.25
2022-12-05T19:11:30.015Z,100234.09
2022-12-05T19:13:58.962Z,100231.47
2022-12-05T19:16:27.300Z,100234.00
2022-12-05T19:18:56.379Z,100239.97
2022-12-05T19:21:24.874Z,100228.09
2022-12-05T19:23:53.013Z,100237.50
2022-12-05T19:26:22.719Z,100231.59
2022-12-05T19:28:50.904Z,100234.13
2022-12-05T19:31:21.822Z,100236.72
2022-12-05T19:33:51.588Z,100243.53
2022-12-05T19:36:21.401Z,100243.56
2022-12-05T19:38:50.996Z,100245.28
2022-12-05T19:41:22.359Z,100236.78
2022-12-05T19:43:50.592Z,100240.16
2022-12-05T19:46:20.886Z,100242.75
2022-12-05T19:48:49.523Z,100246.97
2022-12-05T19:51:17.722Z,100245.28
2022-12-05T19:53:46.153Z,100241.06
2022-12-05T19:56:16.248Z,100240.16
2022-12-05T19:58:45.928Z,100237.63
2022-12-05T20:01:15.726Z,100239.25
2022-12-05T20:03:44.601Z,100241.00
2022-12-05T20:06:12.873Z,100235.88
2022-12-05T20:08:41.314Z,100241.84
2022-12-05T20:11:10.667Z,100241.81
2022-12-05T20:13:47.631Z,100235.88
2022-12-05T20:16:19.492Z,100231.47
2022-12-05T20:18:48.163Z,100237.34
2022-12-05T20:21:17.729Z,100237.28
2022-12-05T20:23:45.943Z,100239.78
2022-12-05T20:26:15.813Z,100241.47
2022-12-05T20:28:44.286Z,100247.31
2022-12-05T20:31:14.221Z,100252.44
2022-12-05T20:33:44.186Z,100246.41
2022-12-05T20:36:13.498Z,100239.50
2022-12-05T20:38:41.791Z,100243.66
2022-12-05T20:41:11.375Z,100245.28
2022-12-05T20:43:39.725Z,100241.84
2022-12-05T20:46:09.193Z,100239.22
2022-12-05T20:48:37.395Z,100243.44
2022-12-05T20:51:08.538Z,100251.06
2022-12-05T20:53:37.283Z,100249.25
2022-12-05T20:56:06.518Z,100247.50
2022-12-05T20:58:34.828Z,100243.28
2022-12-05T21:01:03.593Z,100248.28
2022-12-05T21:03:51.570Z,100250.06
2022-12-05T21:06:42.785Z,100240.63
2022-12-05T21:09:31.861Z,100253.44
2022-12-05T21:12:20.609Z,100247.47
2022-12-05T21:15:11.286Z,100254.25
2022-12-05T21:17:59.694Z,100249.97
2022-12-05T21:20:57.720Z,100244.00
2022-12-05T21:23:48.613Z,100240.59
2022-12-05T21:26:37.019Z,100248.28
2022-12-05T21:29:25.381Z,100247.47
2022-12-05T21:32:13.785Z,100247.47
2022-12-05T21:35:03.360Z,100249.13
2022-12-05T21:37:51.757Z,100244.84
2022-12-05T21:40:43.547Z,100249.13
2022-12-05T21:43:32.296Z,100244.00
2022-12-05T21:46:20.746Z,100232.88
2022-12-05T21:49:09.189Z,100235.44
2022-12-05T21:51:57.547Z,100226.88
2022-12-05T21:54:45.915Z,100227.78
2022-12-05T21:57:38.674Z,100230.34
2022-12-05T22:00:27.507Z,100234.59
2022-12-05T22:03:15.974Z,100242.28
2022-12-05T22:06:05.796Z,100242.34
2022-12-05T22:08:54.976Z,100238.88
2022-12-05T22:11:43.362Z,100240.59
2022-12-05T22:14:33.139Z,100237.13
2022-12-05T22:17:21.597Z,100245.72
2022-12-05T22:20:10.284Z,100239.78
2022-12-05T22:22:58.651Z,100245.75
2022-12-05T22:25:57.628Z,100238.97
2022-12-05T22:28:46.129Z,100246.69
2022-12-05T22:31:35.960Z,100244.13
2022-12-05T22:34:24.467Z,100245.88
2022-12-05T22:37:12.848Z,100245.84
2022-12-05T22:40:01.677Z,100241.53
2022-12-05T22:42:50.391Z,100242.34
2022-12-05T22:45:38.777Z,100243.19
2022-12-05T22:48:28.518Z,100232.06
2022-12-05T22:51:17.407Z,100229.44
2022-12-05T22:54:06.059Z,100227.69
2022-12-05T22:56:54.430Z,100225.19
2022-12-05T22:59:42.814Z,100221.72
2022-12-05T23:02:31.248Z,100225.25
2022-12-05T23:05:21.049Z,100219.19
2022-12-05T23:08:10.412Z,100226.09
2022-12-05T23:10:58.966Z,100219.28
2022-12-05T23:13:47.670Z,100224.44
2022-12-05T23:16:36.151Z,100214.19
2022-12-05T23:19:24.819Z,100206.50
2022-12-05T23:22:14.545Z,100209.88
2022-12-05T23:25:02.948Z,100211.56
2022-12-05T23:27:51.358Z,100207.28
2022-12-05T23:30:39.745Z,100196.19
2022-12-05T23:33:28.154Z,100199.59
2022-12-05T23:36:16.540Z,100203.88
2022-12-05T23:39:06.431Z,100210.66
2022-12-05T23:41:55.590Z,100194.38
2022-12-05T23:44:43.970Z,100196.94
2022-12-05T23:47:32.364Z,100196.06
2022-12-05T23:50:20.730Z,100202.03
2022-12-05T23:53:09.150Z,100205.41
2022-12-05T23:56:02.716Z,100202.84
2022-12-05T23:58:51.543Z,100200.34
